Aeroporto :
LOGIN :

Iscrizione | Disclaimer

   EN    FR    IT 

 










Sommario :    VFR   VFR Marginale   IFR   IFR Intensivo   IFR Molto Intensivo
Visibilità : 
Base nubi : 
>= 8 km
>= 3000ft
5 / 8 km
1000 / 3000 ft
1500m / 5 km
500 / 1000 ft
800 / 1500m
200 / 500 ft
< 800m
< 200 ft
Simboli :   Temporali  Nebbia  Neve Forte  Precipitazioni Forti  Vento > 20 kt
SIGMETs :   Varie  Temporali  Ghiacco  Turbolenza  Onda orograficha  Ceneri Vulcaniche






- Altitudine del aeroporto : 913 ft


LFSX - Luxeuil

ULTIMO METAR :
  • 041530Z AUTO 01004KT 7000 -RA BKN038 BKN045 BKN062 03/02 Q1011

METARs OBSOLETI :
  • 041500Z AUTO 35003KT 7000 SCT007/// BKN040/// OVC046/// ///TCU 03/02 Q1011
  • 041430Z AUTO VRB03KT 6000 -RA OVC042/// ///TCU 03/02 Q1011
  • 041400Z AUTO 30003KT 6000 -RA FEW009/// OVC043/// //////TCU 03/02 Q1011
  • 041330Z AUTO VRB03KT 9000 -RA FEW008/// BKN045/// OVC054/// ///TCU 03/02 Q1011
  • 041300Z AUTO VRB03KT 9999 -RA NSC 03/01 Q1011

Previsioni scadute.



MetMap, La meteo Aeronautica in un colpo d'occhio ! - Copyright ORBIFLY Dicembre 2007 - Disclaimer

ORBIFLY MET'MAP TEAM :

Programmazione e sviluppo : Alexandra Zaïnal
Concezione : Baudouin d'Aumeries
Supporto tecnico e logistico : Manuel Goepfert
Aiuto : Marc-Olivier Méhu
Aiuto per la traduzione : Arnaldo La Scala




FONTI E CREDITI :

   NOAA